Ogdensburg, New Jersey
Current Conditions -  °F | °C
As of 12:53 AM on Tuesday 21 Oct 2014 (Local Time) from KFWN Reporting Station
Overcast Overcast  
Wind Chill: 48°   Ceiling: 11000
Heat Index: 48°   Visibility: 10mi
Dew Point: 43°   Wind: 0mph
Humidity: 83%   Direction: NA
Pressure: 29.93"   Gusts: NA
Location:  41.08°N, 74.59°W
Report Text: KFWN 210453Z AUTO 00000KT 10SM OVC110 09/06 A2993 RMK AO2 SLP136 T00890061 401560000
Loading
Personal Weather Stations






























Interactive Weather Map New forecast layout! Learn more

10-Day Weather Forecast

Advertisements
Track Severe Weather on mobile